Time;durP1;ratioP1;P1;durP2;ratioP2;P2;SDS_P1;SDS_P2;PMS_P1;PMS_P2;Temp;Humidity;BMP_temperature;BMP_pressure;BME280_temperature;BME280_humidity;BME280_pressure;Samples;Min_cycle;Max_cycle;Signal;HPM_P1;HPM_P2
2021/09/26 00:02:13;;;;;;;31.20;19.73;;;;;;;14.76;80.11;97580.58;1769150;80;26566;-93
2021/09/26 00:04:40;;;;;;;28.20;19.55;;;;;;;14.73;80.16;97580.23;1767501;81;25604;-94
2021/09/26 00:07:07;;;;;;;30.72;19.50;;;;;;;14.75;80.23;97582.99;1743001;81;28268;-94
2021/09/26 00:09:34;;;;;;;27.13;18.20;;;;;;;14.75;80.26;97578.91;1743774;80;26988;-93
2021/09/26 00:12:00;;;;;;;26.25;17.50;;;;;;;14.72;80.27;97573.97;1751939;80;25769;-93
2021/09/26 00:14:27;;;;;;;26.23;17.05;;;;;;;14.73;80.28;97574.23;1762309;80;26017;-94
2021/09/26 00:16:57;;;;;;;26.87;17.98;;;;;;;14.74;80.31;97585.41;1737304;81;26412;-93
2021/09/26 00:19:22;;;;;;;26.90;17.85;;;;;;;14.70;80.33;97583.41;1740567;80;28129;-94
2021/09/26 00:21:49;;;;;;;30.00;18.23;;;;;;;14.67;80.39;97580.62;1768255;81;25436;-95
2021/09/26 00:24:17;;;;;;;28.52;18.50;;;;;;;14.68;80.46;97573.30;1749500;80;25821;-95
2021/09/26 00:26:44;;;;;;;28.12;18.23;;;;;;;14.70;80.47;97574.73;1771753;80;26625;-91
2021/09/26 00:29:10;;;;;;;25.12;16.25;;;;;;;14.70;80.46;97574.73;1746007;81;26433;-94
2021/09/26 00:31:37;;;;;;;24.70;16.02;;;;;;;14.70;80.50;97572.02;1737129;82;28792;-93
2021/09/26 00:34:04;;;;;;;26.57;16.42;;;;;;;14.67;80.46;97568.40;1771860;80;26395;-92
2021/09/26 00:36:30;;;;;;;26.17;16.35;;;;;;;14.67;80.52;97567.56;1763500;80;25326;-95
2021/09/26 00:38:57;;;;;;;26.77;17.62;;;;;;;14.63;80.55;97568.55;1755872;80;25974;-94
2021/09/26 00:41:23;;;;;;;29.90;17.87;;;;;;;14.58;80.61;97565.73;1768389;80;25685;-93
2021/09/26 00:43:50;;;;;;;26.50;17.02;;;;;;;14.60;80.68;97574.48;1759538;80;27361;-94
2021/09/26 00:46:16;;;;;;;26.42;17.27;;;;;;;14.64;80.67;97578.36;1755725;80;25788;-94
2021/09/26 00:48:43;;;;;;;23.40;16.93;;;;;;;14.63;80.69;97579.42;1762954;81;25792;-93
2021/09/26 00:51:11;;;;;;;27.82;17.35;;;;;;;14.58;80.67;97575.77;1768262;80;27034;-92
2021/09/26 00:53:43;;;;;;;30.30;18.37;;;;;;;14.57;80.76;97572.75;1738689;81;25781;-93
2021/09/26 00:56:13;;;;;;;25.68;17.05;;;;;;;14.59;80.83;97576.06;1749454;81;27363;-95
2021/09/26 00:58:41;;;;;;;27.45;17.35;;;;;;;14.60;80.87;97571.76;1746801;79;26253;-95
2021/09/26 01:01:08;;;;;;;24.05;16.67;;;;;;;14.63;80.83;97571.27;1772054;79;25786;-94
2021/09/26 01:03:34;;;;;;;24.40;17.52;;;;;;;14.65;80.82;97573.23;1766768;80;25966;-93
2021/09/26 01:06:27;;;;;;;26.12;15.93;;;;;;;14.66;80.81;97574.89;1770720;80;25679;-94
2021/09/26 01:09:08;;;;;;;27.60;16.45;;;;;;;14.62;80.79;97575.05;1665760;81;27399;-92
2021/09/26 01:12:00;;;;;;;24.57;15.55;;;;;;;14.63;80.84;97576.70;1771263;79;25737;-95
2021/09/26 01:14:49;;;;;;;20.60;15.53;;;;;;;14.63;80.88;97575.34;1762381;80;25750;-94
2021/09/26 01:17:30;;;;;;;20.65;14.70;;;;;;;14.62;80.88;97573.69;1737453;82;26100;-92
2021/09/26 01:20:20;;;;;;;24.25;14.83;;;;;;;14.62;80.88;97575.05;1768521;81;25760;-95
2021/09/26 01:23:07;;;;;;;23.27;15.00;;;;;;;14.57;80.90;97580.37;1757805;81;27447;-93
2021/09/26 01:25:57;;;;;;;22.93;15.93;;;;;;;14.52;80.95;97579.39;1765410;79;25854;-92
2021/09/26 01:28:53;;;;;;;21.82;14.83;;;;;;;14.49;81.08;97586.11;1736503;81;25812;-89
2021/09/26 01:31:28;;;;;;;25.92;16.23;;;;;;;14.51;81.12;97579.92;1735098;81;27056;-92
2021/09/26 01:34:15;;;;;;;22.73;15.23;;;;;;;14.51;81.17;97578.56;1746715;81;25506;-93
2021/09/26 01:36:49;;;;;;;23.22;16.60;;;;;;;14.50;81.17;97578.27;1746293;81;27490;-94
2021/09/26 01:39:30;;;;;;;25.27;16.70;;;;;;;14.43;81.22;97569.40;1767136;80;25736;-92
2021/09/26 01:42:14;;;;;;;23.75;16.00;;;;;;;14.38;81.29;97576.01;1761897;81;25822;-93
2021/09/26 01:44:52;;;;;;;25.70;16.27;;;;;;;14.43;81.38;97576.72;1755236;81;25997;-93
2021/09/26 01:47:24;;;;;;;29.10;18.40;;;;;;;14.44;81.40;97576.48;1766418;81;25764;-92
2021/09/26 01:49:56;;;;;;;31.33;18.70;;;;;;;14.44;81.37;97586.00;1737546;82;27553;-93
2021/09/26 01:52:26;;;;;;;27.47;17.23;;;;;;;14.37;81.40;97586.05;1753305;81;25917;-93
2021/09/26 01:54:53;;;;;;;25.92;17.27;;;;;;;14.34;81.48;97584.34;1725517;81;25934;-93
2021/09/26 01:57:21;;;;;;;28.23;19.10;;;;;;;14.37;81.55;97583.86;1753200;81;26784;-92
2021/09/26 01:59:53;;;;;;;31.70;19.30;;;;;;;14.40;81.54;97582.08;1753285;81;25745;-91
2021/09/26 02:02:21;;;;;;;30.68;18.55;;;;;;;14.39;81.52;97585.31;1753388;81;27373;-92
2021/09/26 02:05:07;;;;;;;30.10;19.07;;;;;;;14.39;81.54;97581.74;1753273;81;25739;-93
2021/09/26 02:07:37;;;;;;;32.75;21.37;;;;;;;14.32;81.55;97579.66;1753503;81;25275;-90
2021/09/26 02:10:06;;;;;;;34.38;19.65;;;;;;;14.30;81.63;97579.06;1753131;81;26013;-93
2021/09/26 02:12:34;;;;;;;29.85;19.82;;;;;;;14.33;81.66;97584.87;1753496;81;26408;-94
2021/09/26 02:15:04;;;;;;;34.05;19.85;;;;;;;14.31;81.63;97580.72;1753227;81;28225;-93
2021/09/26 02:17:31;;;;;;;25.72;17.67;;;;;;;14.24;81.61;97580.00;1753259;81;25316;-94
2021/09/26 02:20:01;;;;;;;25.70;16.70;;;;;;;14.17;81.67;97573.81;1753157;81;25787;-94
2021/09/26 02:22:30;;;;;;;20.80;16.20;;;;;;;14.10;81.76;97573.09;1753289;81;26178;-94
2021/09/26 02:25:00;;;;;;;25.62;15.60;;;;;;;14.06;81.82;97576.25;1752950;81;25343;-94
2021/09/26 02:27:28;;;;;;;24.57;16.05;;;;;;;14.11;81.87;97584.25;1753346;81;27386;-95
2021/09/26 02:29:55;;;;;;;19.17;14.33;;;;;;;14.06;81.75;97580.33;1753208;81;25780;-91
2021/09/26 02:32:21;;;;;;;18.32;15.05;;;;;;;14.05;81.75;97578.66;1753531;81;25677;-92
2021/09/26 02:34:48;;;;;;;18.48;13.90;;;;;;;14.05;81.64;97584.09;1753811;81;26848;-95
2021/09/26 02:37:15;;;;;;;17.80;14.50;;;;;;;14.00;81.58;97585.33;1754002;81;25677;-95
2021/09/26 02:39:41;;;;;;;17.25;13.78;;;;;;;13.96;81.54;97580.58;1753550;81;27418;-95
2021/09/26 02:42:39;;;;;;;18.48;13.60;;;;;;;13.94;81.49;97582.16;1722481;81;25723;-95
2021/09/26 02:45:14;;;;;;;18.73;13.50;;;;;;;13.91;81.29;97581.77;1753494;81;25697;-92
2021/09/26 02:47:58;;;;;;;19.07;13.35;;;;;;;13.77;81.30;97583.81;1753611;81;25751;-94
2021/09/26 02:50:26;;;;;;;17.82;12.20;;;;;;;13.71;81.36;97591.52;1753080;81;26196;-91
2021/09/26 02:52:54;;;;;;;16.05;12.50;;;;;;;13.66;81.32;97594.08;1753496;81;27395;-95
2021/09/26 02:55:21;;;;;;;15.32;11.93;;;;;;;13.54;81.37;97597.23;1753425;81;25706;-96
2021/09/26 02:57:48;;;;;;;18.37;11.97;;;;;;;13.47;81.60;97596.48;1753753;81;25909;-93
2021/09/26 03:00:15;;;;;;;17.35;12.60;;;;;;;13.46;81.77;97588.05;1753443;81;26160;-96
2021/09/26 03:02:45;;;;;;;16.45;12.80;;;;;;;13.45;81.78;97593.17;1753663;81;25783;-93
2021/09/26 03:05:10;;;;;;;16.75;12.75;;;;;;;13.43;81.67;97596.62;1747980;79;27497;-94
2021/09/26 03:07:37;;;;;;;16.52;12.25;;;;;;;13.36;81.64;97597.23;1762648;81;25272;-95
2021/09/26 03:10:10;;;;;;;16.15;13.40;;;;;;;13.28;81.63;97601.08;1717056;82;25875;-95
2021/09/26 03:12:34;;;;;;;14.65;11.93;;;;;;;13.21;81.71;97605.72;1748534;79;26913;-92
2021/09/26 03:15:01;;;;;;;17.37;12.33;;;;;;;13.11;81.77;97607.55;1761418;79;25746;-95
2021/09/26 03:17:30;;;;;;;18.10;12.75;;;;;;;13.02;81.87;97606.18;1756617;80;27540;-92
2021/09/26 03:19:56;;;;;;;15.75;12.65;;;;;;;12.97;81.99;97606.00;1717577;81;25846;-95
2021/09/26 03:22:23;;;;;;;16.17;11.48;;;;;;;12.93;82.07;97614.27;1768554;80;25901;-96
2021/09/26 03:24:49;;;;;;;19.35;13.35;;;;;;;12.89;82.08;97611.19;1763380;80;25876;-92
2021/09/26 03:27:16;;;;;;;16.48;12.55;;;;;;;12.84;82.09;97612.36;1740729;80;25616;-96
2021/09/26 03:29:43;;;;;;;15.32;11.75;;;;;;;12.78;82.14;97608.36;1747720;79;27624;-95
2021/09/26 03:32:11;;;;;;;13.05;10.80;;;;;;;12.79;82.23;97610.02;1753897;79;25790;-94
2021/09/26 03:34:38;;;;;;;16.52;10.78;;;;;;;12.76;82.18;97609.11;1754191;80;25751;-93
2021/09/26 03:37:06;;;;;;;15.28;10.63;;;;;;;12.72;82.14;97611.41;1747708;79;26420;-96
2021/09/26 03:39:32;;;;;;;16.65;11.55;;;;;;;12.68;82.10;97610.18;1756226;79;25696;-92
2021/09/26 03:41:59;;;;;;;17.67;11.53;;;;;;;12.66;82.12;97613.66;1738243;80;27607;-96
2021/09/26 03:44:26;;;;;;;15.95;11.85;;;;;;;12.62;82.06;97615.14;1758893;79;25796;-92
2021/09/26 03:46:54;;;;;;;15.93;10.95;;;;;;;12.66;82.14;97611.48;1771985;79;25255;-92
2021/09/26 03:49:20;;;;;;;18.45;11.50;;;;;;;12.68;82.07;97610.18;1764916;79;26168;-94
2021/09/26 03:51:48;;;;;;;17.37;11.65;;;;;;;12.70;81.94;97619.45;1737814;81;25833;-94
2021/09/26 03:54:19;;;;;;;18.20;11.20;;;;;;;12.65;81.77;97620.65;1763718;80;27393;-91
2021/09/26 03:56:48;;;;;;;19.65;13.55;;;;;;;12.60;81.80;97628.06;1766869;80;25819;-92
2021/09/26 03:59:16;;;;;;;15.75;11.63;;;;;;;12.58;81.87;97624.22;1770351;79;26443;-92
2021/09/26 04:01:43;;;;;;;15.65;12.37;;;;;;;12.54;81.81;97618.95;1768431;81;26800;-94
2021/09/26 04:04:09;;;;;;;14.85;12.80;;;;;;;12.50;81.70;97620.95;1768253;81;25248;-91
2021/09/26 04:06:37;;;;;;;18.65;12.68;;;;;;;12.49;81.77;97617.93;1768369;81;27454;-93
2021/09/26 04:09:05;;;;;;;16.80;13.08;;;;;;;12.48;81.67;97617.09;1771620;80;25949;-93
2021/09/26 04:11:34;;;;;;;17.37;11.68;;;;;;;12.46;81.57;97615.66;1771703;79;25809;-93
2021/09/26 04:14:00;;;;;;;16.10;12.93;;;;;;;12.40;81.56;97617.38;1739333;82;26009;-93
2021/09/26 04:16:28;;;;;;;17.98;13.28;;;;;;;12.38;81.54;97626.23;1746721;80;25587;-93
2021/09/26 04:18:55;;;;;;;16.70;12.45;;;;;;;12.35;81.49;97630.72;1771556;80;27378;-92
2021/09/26 04:21:21;;;;;;;13.83;11.97;;;;;;;12.34;81.46;97624.16;1759336;80;25308;-93
2021/09/26 04:23:50;;;;;;;15.83;11.95;;;;;;;12.30;81.48;97625.14;1739197;81;25724;-94
2021/09/26 04:26:17;;;;;;;16.80;12.63;;;;;;;12.29;81.35;97620.77;1740425;81;26222;-93
2021/09/26 04:28:43;;;;;;;12.13;9.90;;;;;;;12.28;81.28;97633.16;1740720;82;25681;-95
2021/09/26 04:31:10;;;;;;;17.20;10.38;;;;;;;12.25;81.19;97623.59;1740955;81;27460;-96
2021/09/26 04:33:37;;;;;;;14.90;10.18;;;;;;;12.22;81.07;97629.43;1740570;81;25855;-95
2021/09/26 04:36:05;;;;;;;16.93;9.95;;;;;;;12.19;81.07;97629.36;1740973;82;25754;-95
2021/09/26 04:38:32;;;;;;;12.70;10.13;;;;;;;12.17;80.95;97628.75;1740667;81;26852;-95
2021/09/26 04:41:00;;;;;;;11.88;9.75;;;;;;;12.11;80.86;97630.11;1740857;82;25267;-95
2021/09/26 04:43:27;;;;;;;13.88;10.93;;;;;;;12.07;80.82;97630.26;1719732;81;26819;-95
2021/09/26 04:45:53;;;;;;;12.95;10.68;;;;;;;12.04;80.78;97632.86;1740782;82;25697;-94
2021/09/26 04:48:20;;;;;;;13.83;10.40;;;;;;;12.03;80.78;97632.55;1740842;82;26673;-94
2021/09/26 04:50:47;;;;;;;17.05;10.65;;;;;;;12.00;80.76;97642.45;1719321;82;26600;-94
2021/09/26 04:53:14;;;;;;;17.65;10.25;;;;;;;11.99;80.78;97634.54;1740736;81;25708;-95
2021/09/26 04:55:41;;;;;;;13.90;10.23;;;;;;;11.97;80.71;97639.33;1740617;81;27394;-94
2021/09/26 04:58:10;;;;;;;15.93;10.55;;;;;;;11.96;80.69;97645.78;1740760;82;25669;-92
2021/09/26 05:00:37;;;;;;;13.75;9.33;;;;;;;11.95;80.72;97638.73;1740750;81;25258;-94
2021/09/26 05:03:04;;;;;;;12.18;10.20;;;;;;;11.94;80.73;97642.48;1741011;81;25895;-95
2021/09/26 05:05:31;;;;;;;15.03;9.98;;;;;;;11.93;80.66;97640.82;1740864;82;25720;-95
2021/09/26 05:07:57;;;;;;;12.88;10.18;;;;;;;11.91;80.75;97639.68;1741001;82;27437;-93
2021/09/26 05:10:24;;;;;;;14.98;11.12;;;;;;;11.94;80.88;97643.84;1740720;82;25798;-90
2021/09/26 05:12:51;;;;;;;15.43;12.47;;;;;;;11.95;80.95;97643.63;1740953;82;25847;-92
2021/09/26 05:15:17;;;;;;;27.07;19.80;;;;;;;11.98;81.01;97646.41;1740925;81;26892;-95
2021/09/26 05:17:44;;;;;;;32.73;21.77;;;;;;;12.00;81.10;97641.09;1740693;81;25822;-94
2021/09/26 05:20:11;;;;;;;33.15;22.37;;;;;;;12.04;81.22;97645.04;1741109;81;27439;-96
2021/09/26 05:22:38;;;;;;;32.53;21.23;;;;;;;12.08;81.26;97644.06;1740640;81;25685;-93
2021/09/26 05:25:06;;;;;;;24.30;17.85;;;;;;;12.11;81.26;97651.23;1760976;81;25703;-93
2021/09/26 05:27:33;;;;;;;24.60;16.17;;;;;;;12.14;81.26;97646.76;1760656;81;26123;-93
2021/09/26 05:30:00;;;;;;;21.82;14.23;;;;;;;12.16;81.25;97647.38;1760740;80;25715;-94
2021/09/26 05:32:26;;;;;;;19.67;14.47;;;;;;;12.19;81.27;97652.37;1748111;80;27601;-94
2021/09/26 05:34:53;;;;;;;20.97;15.38;;;;;;;12.22;81.31;97657.84;1751982;81;25775;-94
2021/09/26 05:37:20;;;;;;;17.07;13.68;;;;;;;12.26;81.35;97654.50;1761243;81;25314;-95
2021/09/26 05:39:46;;;;;;;20.25;14.23;;;;;;;12.33;81.32;97657.69;1760391;80;26052;-96
2021/09/26 05:42:13;;;;;;;24.98;17.12;;;;;;;12.35;81.32;97652.89;1760097;80;25748;-95
2021/09/26 05:44:39;;;;;;;23.05;17.77;;;;;;;12.39;81.33;97653.61;1760556;80;28655;-95
2021/09/26 05:47:07;;;;;;;21.62;18.02;;;;;;;12.43;81.34;97657.55;1739454;80;25878;-96
2021/09/26 05:49:37;;;;;;;26.80;17.12;;;;;;;12.48;81.34;97660.42;1760347;81;26050;-94
2021/09/26 05:52:06;;;;;;;27.50;16.48;;;;;;;12.52;81.35;97661.66;1759977;80;26797;-93
2021/09/26 05:54:32;;;;;;;22.20;14.95;;;;;;;12.56;81.36;97664.22;1760284;80;25742;-93
2021/09/26 05:56:59;;;;;;;18.00;14.25;;;;;;;12.61;81.34;97663.05;1760593;80;28047;-92
2021/09/26 05:59:26;;;;;;;24.20;14.93;;;;;;;12.68;81.30;97663.00;1738887;80;25702;-92
2021/09/26 06:01:52;;;;;;;19.57;14.25;;;;;;;12.73;81.27;97666.41;1759070;80;25733;-92
2021/09/26 06:04:19;;;;;;;20.48;15.28;;;;;;;12.77;81.31;97664.94;1760753;80;26069;-92
2021/09/26 06:06:46;;;;;;;21.50;15.30;;;;;;;12.82;81.32;97663.22;1760969;81;25706;-92
2021/09/26 06:09:12;;;;;;;19.75;15.32;;;;;;;12.89;81.35;97663.19;1759475;80;27354;-94
2021/09/26 06:11:39;;;;;;;19.67;16.07;;;;;;;12.94;81.42;97666.88;1759945;80;25287;-92
2021/09/26 06:14:05;;;;;;;18.15;14.33;;;;;;;12.97;81.49;97667.80;1758927;80;25718;-91
2021/09/26 06:16:32;;;;;;;21.95;16.20;;;;;;;13.02;81.59;97671.22;1759708;80;26747;-92
2021/09/26 06:18:59;;;;;;;22.55;15.45;;;;;;;13.08;81.52;97668.97;1759600;80;25673;-93
2021/09/26 06:21:25;;;;;;;21.15;13.75;;;;;;;13.15;81.52;97665.73;1760527;80;27967;-91
2021/09/26 06:23:52;;;;;;;13.62;11.40;;;;;;;13.24;81.50;97670.34;1755410;80;26530;-91
2021/09/26 06:26:20;;;;;;;18.32;12.50;;;;;;;13.34;81.50;97673.37;1739776;82;25705;-92
2021/09/26 06:28:46;;;;;;;18.32;12.85;;;;;;;13.45;81.53;97669.09;1739816;82;26334;-94
2021/09/26 06:31:13;;;;;;;17.10;11.95;;;;;;;13.57;81.57;97670.02;1739798;82;25780;-94
2021/09/26 06:33:41;;;;;;;15.90;11.25;;;;;;;13.70;81.51;97672.60;1715205;82;28165;-92
2021/09/26 06:36:08;;;;;;;12.28;9.85;;;;;;;13.80;81.42;97674.27;1708483;82;26300;-95
2021/09/26 06:38:35;;;;;;;16.25;9.88;;;;;;;13.91;81.36;97672.16;1730346;82;26341;-93
2021/09/26 06:41:02;;;;;;;15.90;10.18;;;;;;;14.01;81.27;97672.45;1739810;82;26010;-90
2021/09/26 06:43:28;;;;;;;14.35;9.83;;;;;;;14.09;81.26;97667.80;1739704;82;25804;-93
2021/09/26 06:45:55;;;;;;;16.75;9.90;;;;;;;14.16;81.22;97675.31;1734415;82;27366;-95
2021/09/26 06:48:21;;;;;;;13.30;9.75;;;;;;;14.24;81.19;97672.31;1739655;82;25777;-92
2021/09/26 06:50:49;;;;;;;13.48;9.30;;;;;;;14.31;81.15;97675.23;1732979;81;26589;-92
2021/09/26 06:53:17;;;;;;;11.83;8.65;;;;;;;14.43;81.13;97667.70;1734566;81;26071;-92
2021/09/26 06:55:43;;;;;;;13.18;9.53;;;;;;;14.53;81.05;97670.69;1739575;81;25776;-92
2021/09/26 06:58:10;;;;;;;10.98;9.08;;;;;;;14.62;81.00;97672.02;1739689;82;27367;-92
2021/09/26 07:00:37;;;;;;;15.08;9.55;;;;;;;14.74;80.91;97672.36;1739723;82;25294;-93
2021/09/26 07:03:03;;;;;;;13.28;10.13;;;;;;;14.89;80.85;97673.30;1739669;82;25717;-93
2021/09/26 07:05:30;;;;;;;10.82;8.68;;;;;;;15.04;80.72;97670.98;1739707;82;26672;-92
2021/09/26 07:07:56;;;;;;;12.00;9.48;;;;;;;15.19;80.63;97673.79;1739752;82;25658;-93
2021/09/26 07:10:23;;;;;;;12.25;9.05;;;;;;;15.35;80.38;97675.80;1739802;82;27269;-91
2021/09/26 07:12:50;;;;;;;13.28;9.58;;;;;;;15.55;80.23;97677.70;1738127;82;25830;-90
2021/09/26 07:15:16;;;;;;;15.65;10.38;;;;;;;15.70;80.06;97677.20;1733560;82;25805;-94
2021/09/26 07:17:43;;;;;;;11.40;8.80;;;;;;;15.78;79.74;97676.86;1729252;82;26162;-92
2021/09/26 07:20:10;;;;;;;12.13;8.63;;;;;;;15.85;79.55;97672.11;1739965;81;25773;-92
2021/09/26 07:22:38;;;;;;;12.78;8.95;;;;;;;15.94;79.42;97677.48;1740497;82;27322;-95
2021/09/26 07:25:06;;;;;;;12.03;9.20;;;;;;;16.03;79.17;97680.15;1753817;80;25823;-93
2021/09/26 07:27:33;;;;;;;11.80;8.95;;;;;;;16.12;78.92;97675.16;1763144;81;25934;-93
2021/09/26 07:29:59;;;;;;;10.50;8.53;;;;;;;16.20;78.73;97678.32;1742668;81;25995;-93
2021/09/26 07:32:26;;;;;;;13.98;9.00;;;;;;;16.29;78.97;97679.33;1745850;80;25839;-93
2021/09/26 07:34:53;;;;;;;19.90;9.53;;;;;;;16.37;78.95;97681.66;1740375;80;27538;-89
2021/09/26 07:37:20;;;;;;;10.18;8.58;;;;;;;16.47;78.59;97681.86;1763438;81;25869;-86
2021/09/26 07:39:47;;;;;;;9.60;8.13;;;;;;;16.58;78.59;97678.27;1737523;80;25883;-87
2021/09/26 07:42:13;;;;;;;11.80;8.53;;;;;;;16.72;78.43;97681.56;1745733;80;25939;-89
2021/09/26 07:44:40;;;;;;;9.75;7.65;;;;;;;16.83;77.86;97686.13;1759628;80;25705;-89
2021/09/26 07:47:07;;;;;;;11.33;8.18;;;;;;;16.92;77.52;97688.75;1732361;80;27367;-91
2021/09/26 07:49:34;;;;;;;12.60;8.25;;;;;;;16.98;77.13;97695.14;1732746;80;25678;-91
2021/09/26 07:52:01;;;;;;;12.03;8.40;;;;;;;17.05;77.04;97698.53;1741539;80;26404;-91
2021/09/26 07:54:27;;;;;;;9.48;7.95;;;;;;;17.13;76.80;97695.42;1763617;80;25716;-87
2021/09/26 07:56:54;;;;;;;10.05;8.45;;;;;;;17.18;76.70;97690.86;1762097;80;25871;-92
2021/09/26 07:59:21;;;;;;;9.85;8.33;;;;;;;17.27;76.62;97689.38;1763644;81;27188;-92
2021/09/26 08:01:48;;;;;;;11.83;8.70;;;;;;;17.40;76.60;97690.13;1757182;80;25991;-92
2021/09/26 08:04:15;;;;;;;10.25;8.23;;;;;;;17.51;76.36;97686.52;1721692;82;25786;-92
2021/09/26 08:06:42;;;;;;;9.45;8.38;;;;;;;17.69;76.18;97684.08;1742208;80;26727;-92
2021/09/26 08:09:08;;;;;;;10.53;8.00;;;;;;;18.07;76.04;97677.27;1762533;80;25896;-92
2021/09/26 08:11:35;;;;;;;11.35;7.75;;;;;;;18.50;75.78;97671.50;1757757;80;27357;-94
2021/09/26 08:14:02;;;;;;;10.82;7.80;;;;;;;18.93;75.32;97676.13;1746756;80;25842;-93
2021/09/26 08:16:30;;;;;;;10.70;7.60;;;;;;;19.32;74.72;97669.94;1763700;80;26429;-93
2021/09/26 08:18:56;;;;;;;9.45;7.85;;;;;;;19.68;74.30;97673.81;1751311;80;26539;-93
2021/09/26 08:21:23;;;;;;;11.22;7.42;;;;;;;20.00;73.51;97674.56;1733444;80;25799;-93
2021/09/26 08:23:49;;;;;;;9.33;7.08;;;;;;;20.31;73.17;97670.05;1762741;80;28027;-92
2021/09/26 08:26:16;;;;;;;11.38;7.50;;;;;;;20.59;72.28;97673.48;1750707;81;25271;-93
2021/09/26 08:28:43;;;;;;;8.95;7.17;;;;;;;20.85;72.10;97671.10;1745480;80;25299;-94
2021/09/26 08:31:09;;;;;;;10.10;6.72;;;;;;;21.11;71.61;97670.61;1757312;80;26617;-89
2021/09/26 08:33:36;;;;;;;9.03;6.78;;;;;;;21.47;70.69;97644.02;1737042;80;25784;-91
2021/09/26 08:36:03;;;;;;;7.30;6.58;;;;;;;21.47;70.69;97644.02;1757638;80;27308;-95
2021/09/26 08:38:29;;;;;;;11.78;6.92;;;;;;;22.04;69.51;97665.67;1736618;80;25811;-87
2021/09/26 08:40:57;;;;;;;7.25;6.40;;;;;;;22.22;69.25;97660.93;1756440;80;26361;-89
2021/09/26 08:43:23;;;;;;;7.22;6.17;;;;;;;22.22;69.25;97660.93;1736747;80;25913;-91
2021/09/26 08:45:50;;;;;;;6.00;5.50;;;;;;;22.39;68.51;97660.61;1742435;81;25911;-92
2021/09/26 08:48:17;;;;;;;10.35;6.17;;;;;;;22.55;67.76;97659.45;1753603;81;27366;-93
2021/09/26 08:50:44;;;;;;;10.32;6.40;;;;;;;22.75;67.11;97657.69;1740294;82;26092;-92
2021/09/26 08:53:10;;;;;;;6.83;5.67;;;;;;;22.91;66.45;97662.05;1740520;81;25657;-91
2021/09/26 08:55:37;;;;;;;6.60;5.92;;;;;;;23.09;65.99;97662.73;1740937;81;25983;-90
2021/09/26 08:58:04;;;;;;;10.70;6.03;;;;;;;23.23;65.32;97663.75;1740843;81;25828;-87
2021/09/26 09:00:31;;;;;;;6.28;5.67;;;;;;;23.37;64.76;97658.41;1740319;82;27404;-92
2021/09/26 09:02:58;;;;;;;6.53;5.60;;;;;;;23.51;64.59;97655.86;1740622;81;25849;-92
2021/09/26 09:05:32;;;;;;;6.47;5.85;;;;;;;23.63;64.54;97654.37;1740656;81;25801;-87
2021/09/26 09:08:12;;;;;;;10.75;6.30;;;;;;;23.81;63.76;97654.19;1740671;81;26369;-94
2021/09/26 09:10:59;;;;;;;6.12;5.45;;;;;;;23.88;63.71;97654.69;1740806;81;25817;-92
2021/09/26 09:13:41;;;;;;;6.25;5.65;;;;;;;23.97;62.86;97657.07;1740485;81;28199;-89
2021/09/26 09:16:15;;;;;;;6.22;5.33;;;;;;;24.08;62.39;97658.34;1740382;81;25940;-91
2021/09/26 09:18:50;;;;;;;6.62;6.03;;;;;;;24.24;62.12;97655.72;1740466;81;25810;-95
2021/09/26 09:21:23;;;;;;;6.00;5.40;;;;;;;24.34;61.37;97650.90;1740154;81;25817;-92
2021/09/26 09:23:54;;;;;;;7.00;5.15;;;;;;;24.41;61.31;97643.08;1740482;81;26048;-92
2021/09/26 09:26:33;;;;;;;7.03;5.92;;;;;;;24.45;61.33;97639.18;1764113;79;27384;-93
2021/09/26 09:29:01;;;;;;;7.30;5.62;;;;;;;24.51;60.38;97638.57;1761563;81;25925;-92
2021/09/26 09:31:27;;;;;;;10.13;5.85;;;;;;;24.47;60.59;97639.71;1753012;81;25765;-92
2021/09/26 09:33:54;;;;;;;7.95;5.62;;;;;;;24.52;60.66;97638.80;1768253;81;26093;-91
2021/09/26 09:36:27;;;;;;;6.22;5.67;;;;;;;24.64;60.60;97640.02;1759221;80;25703;-93
2021/09/26 09:38:58;;;;;;;6.03;5.42;;;;;;;24.85;60.24;97635.63;1768322;80;27531;-94
2021/09/26 09:41:43;;;;;;;5.50;5.00;;;;;;;25.01;59.40;97631.53;1770261;80;25406;-93
2021/09/26 09:44:14;;;;;;;6.85;5.55;;;;;;;25.00;59.12;97632.65;1715849;82;25849;-93
2021/09/26 09:46:47;;;;;;;5.70;5.20;;;;;;;25.12;59.00;97633.02;1771695;80;26795;-93
2021/09/26 09:49:18;;;;;;;5.60;4.97;;;;;;;25.24;58.52;97633.38;1750128;80;25708;-93
2021/09/26 09:52:01;;;;;;;5.97;4.42;;;;;;;25.33;58.23;97632.98;1766172;81;27358;-94
2021/09/26 09:54:35;;;;;;;5.30;4.80;;;;;;;25.42;57.94;97631.17;1768050;81;25804;-91
2021/09/26 09:57:15;;;;;;;9.60;5.22;;;;;;;25.61;57.92;97635.29;1768279;80;25696;-93
2021/09/26 09:59:45;;;;;;;5.67;4.85;;;;;;;25.79;57.19;97632.23;1768305;81;26212;-86
2021/09/26 10:02:13;;;;;;;5.55;4.90;;;;;;;25.90;56.83;97629.53;1767636;80;26301;-93
2021/09/26 10:04:44;;;;;;;5.33;4.83;;;;;;;25.97;56.44;97627.17;1758346;81;27339;-92
2021/09/26 10:07:26;;;;;;;9.50;4.70;;;;;;;25.96;55.88;97626.95;1763027;81;26549;-93
2021/09/26 10:09:54;;;;;;;;;;;;;;;25.99;55.29;97626.31;1758567;77;25808;-93
2021/09/26 10:12:29;;;;;;;5.08;4.67;;;;;;;25.96;52.68;97628.33;1768417;80;26187;-94
2021/09/26 10:15:03;;;;;;;4.75;4.35;;;;;;;25.90;53.61;97619.85;1753792;80;25346;-92
2021/09/26 10:17:30;;;;;;;5.45;4.80;;;;;;;25.77;53.65;97625.61;1762616;81;27457;-92
2021/09/26 10:19:57;;;;;;;6.60;4.50;;;;;;;25.78;54.07;97622.29;1768145;81;25728;-95
2021/09/26 10:22:25;;;;;;;6.55;4.42;;;;;;;25.87;53.32;97627.93;1768362;81;25791;-90
2021/09/26 10:24:55;;;;;;;5.62;4.60;;;;;;;25.71;53.15;97620.49;1768458;81;26045;-94
2021/09/26 10:27:30;;;;;;;5.70;4.58;;;;;;;25.60;53.22;97624.53;1770943;81;25797;-89
2021/09/26 10:30:08;;;;;;;4.92;4.42;;;;;;;25.57;53.32;97622.36;1763546;80;27413;-93
2021/09/26 10:32:37;;;;;;;4.90;4.05;;;;;;;25.63;53.60;97617.02;1763194;80;27057;-88
2021/09/26 10:35:05;;;;;;;5.22;4.20;;;;;;;25.69;53.01;97615.83;1767150;80;25795;-91
2021/09/26 10:37:32;;;;;;;7.60;4.10;;;;;;;25.75;52.72;97617.36;1764373;80;25985;-89
2021/09/26 10:39:59;;;;;;;5.60;5.03;;;;;;;25.77;53.00;97611.79;1753758;80;25860;-94
2021/09/26 10:42:29;;;;;;;5.33;4.83;;;;;;;25.69;50.93;97609.73;1744601;80;27377;-92
2021/09/26 10:45:00;;;;;;;4.67;4.28;;;;;;;25.57;52.07;97607.98;1763815;80;25754;-91
2021/09/26 10:47:29;;;;;;;8.70;4.80;;;;;;;25.58;52.19;97606.05;1771092;80;25800;-93
2021/09/26 10:50:14;;;;;;;4.30;3.90;;;;;;;25.66;52.46;97610.33;1771015;80;26392;-92
2021/09/26 10:52:50;;;;;;;5.62;4.05;;;;;;;25.69;51.68;97603.38;1771231;80;25725;-93
2021/09/26 10:55:27;;;;;;;7.83;4.00;;;;;;;25.75;51.48;97607.13;1759042;80;28198;-93
2021/09/26 10:58:07;;;;;;;5.62;4.12;;;;;;;25.71;51.05;97603.91;1771250;80;25783;-92
2021/09/26 11:01:01;;;;;;;5.22;4.28;;;;;;;25.67;51.41;97602.86;1759053;80;25302;-93
2021/09/26 11:03:41;;;;;;;4.55;4.15;;;;;;;25.70;51.23;97600.87;1761585;80;26196;-91
2021/09/26 11:06:27;;;;;;;4.92;4.42;;;;;;;25.55;50.86;97596.97;1758386;80;25767;-88
2021/09/26 11:08:57;;;;;;;4.87;4.12;;;;;;;25.52;51.16;97594.80;1771318;80;27429;-89
2021/09/26 11:11:47;;;;;;;5.12;4.08;;;;;;;25.57;50.99;97588.64;1770701;80;25716;-92
2021/09/26 11:14:15;;;;;;;5.28;4.20;;;;;;;25.63;50.98;97596.30;1758957;80;26471;-94
2021/09/26 11:16:58;;;;;;;5.12;4.22;;;;;;;25.72;51.19;97594.48;1764075;80;26766;-90
2021/09/26 11:19:27;;;;;;;5.45;4.50;;;;;;;25.75;50.61;97593.86;1771486;80;25329;-93
2021/09/26 11:22:06;;;;;;;5.42;4.75;;;;;;;25.59;50.13;97586.95;1771367;80;27357;-89
2021/09/26 11:24:37;;;;;;;5.85;4.35;;;;;;;25.62;50.52;97580.83;1759717;80;25710;-90
2021/09/26 11:27:20;;;;;;;6.17;4.35;;;;;;;25.68;50.80;97583.77;1760206;81;25788;-95
2021/09/26 11:29:56;;;;;;;7.35;4.45;;;;;;;25.69;50.63;97576.56;1757619;81;26711;-92
2021/09/26 11:32:29;;;;;;;5.28;4.45;;;;;;;25.69;51.07;97581.27;1747999;81;25763;-92
2021/09/26 11:34:59;;;;;;;6.70;4.30;;;;;;;25.70;51.21;97578.77;1769664;81;27456;-94
2021/09/26 11:37:44;;;;;;;8.55;4.58;;;;;;;25.74;51.09;97575.06;1768948;81;25724;-95